Time;durP1;ratioP1;P1;durP2;ratioP2;P2;SDS_P1;SDS_P2;PMS_P1;PMS_P2;Temp;Humidity;BMP_temperature;BMP_pressure;BME280_temperature;BME280_humidity;BME280_pressure;Samples;Min_cycle;Max_cycle;Signal;HPM_P1;HPM_P2
2023/01/17 04:55:56;;;;;;;1.02;1.02;;;-0.50;99.90;;;;;;5873916;23;20251;-76
2023/01/17 04:58:24;;;;;;;1.60;1.50;;;-0.40;99.90;;;;;;4975123;28;20203;-74
2023/01/17 05:00:51;;;;;;;2.00;1.90;;;-0.50;99.90;;;;;;4975495;28;20203;-75
2023/01/17 05:03:18;;;;;;;1.27;1.20;;;-0.60;99.90;;;;;;4976376;28;20709;-74
2023/01/17 05:05:44;;;;;;;1.10;1.10;;;-0.70;99.90;;;;;;4975722;28;20626;-73
2023/01/17 05:08:12;;;;;;;2.00;1.10;;;-0.80;99.90;;;;;;4975907;28;20211;-74
2023/01/17 05:10:38;;;;;;;0.98;0.98;;;-0.90;99.90;;;;;;4974972;28;20208;-75
2023/01/17 05:13:05;;;;;;;0.90;0.90;;;-1.00;99.90;;;;;;4974826;28;20207;-75
2023/01/17 05:15:33;;;;;;;0.90;0.90;;;-1.10;99.90;;;;;;4974319;28;20239;-75
2023/01/17 05:18:00;;;;;;;0.90;0.90;;;-1.10;99.90;;;;;;4974745;28;20199;-75
2023/01/17 05:20:27;;;;;;;0.90;0.90;;;-1.20;99.90;;;;;;4974432;28;20729;-75
2023/01/17 05:22:55;;;;;;;1.10;0.93;;;-1.30;99.90;;;;;;4974800;28;20214;-75
2023/01/17 05:25:22;;;;;;;0.90;0.90;;;-1.30;99.90;;;;;;4974496;28;20246;-75
2023/01/17 05:27:48;;;;;;;1.40;1.40;;;-1.50;99.90;;;;;;4974535;28;20574;-76
2023/01/17 05:30:16;;;;;;;2.50;1.10;;;-1.50;99.90;;;;;;4974827;28;20210;-72
2023/01/17 05:32:48;;;;;;;2.30;1.00;;;-1.60;99.90;;;;;;4974659;28;20717;-72
2023/01/17 05:35:15;;;;;;;3.63;1.10;;;-1.60;99.90;;;;;;4975075;28;20223;-71
2023/01/17 05:37:47;;;;;;;1.25;1.00;;;-1.80;99.90;;;;;;4974758;28;20206;-71
2023/01/17 05:40:15;;;;;;;3.40;1.10;;;-1.80;99.90;;;;;;4974526;28;20714;-71
2023/01/17 05:42:45;;;;;;;0.80;0.80;;;-1.90;99.90;;;;;;4974348;28;20677;-71
2023/01/17 05:45:15;;;;;;;0.70;0.70;;;-2.00;99.90;;;;;;4974550;28;20231;-72
2023/01/17 05:47:42;;;;;;;1.05;0.95;;;-2.00;99.90;;;;;;4974652;28;20214;-71
2023/01/17 05:50:11;;;;;;;0.88;0.88;;;-2.20;99.90;;;;;;4974592;28;20226;-71
2023/01/17 05:52:38;;;;;;;1.17;0.93;;;-2.20;99.90;;;;;;4974675;28;20203;-72
2023/01/17 05:55:06;;;;;;;4.60;0.98;;;-2.30;99.90;;;;;;4974627;28;20227;-74
2023/01/17 05:57:33;;;;;;;1.08;0.90;;;-2.30;99.90;;;;;;4974393;28;20339;-76
2023/01/17 06:00:00;;;;;;;0.88;0.88;;;-2.30;99.90;;;;;;4974526;28;20199;-74
2023/01/17 06:02:27;;;;;;;0.70;0.70;;;-2.40;99.90;;;;;;4974155;28;20663;-74
2023/01/17 06:04:53;;;;;;;1.13;1.13;;;-2.40;99.90;;;;;;4974411;28;20215;-74
2023/01/17 06:07:21;;;;;;;1.85;1.10;;;-2.40;99.90;;;;;;4974345;28;20200;-74
2023/01/17 06:09:48;;;;;;;0.90;0.90;;;-2.40;99.90;;;;;;4974423;28;20199;-73
2023/01/17 09:47:13;;;;;;;6.60;5.95;;;-0.40;99.90;;;;;;5285089;23;20325;-72
2023/01/17 09:49:43;;;;;;;7.18;5.97;;;-0.40;99.90;;;;;;4974346;28;20215;-72
2023/01/17 09:52:13;;;;;;;8.93;5.80;;;-0.30;99.90;;;;;;4974653;28;20207;-72
2023/01/17 09:54:42;;;;;;;7.20;5.60;;;-0.20;99.90;;;;;;4974401;28;20643;-72
2023/01/17 09:57:21;;;;;;;7.68;5.65;;;-0.20;99.90;;;;;;4974449;28;20222;-72
2023/01/17 09:59:56;;;;;;;9.57;5.93;;;-0.10;99.90;;;;;;4975074;28;20195;-72
2023/01/17 10:02:55;;;;;;;6.63;5.45;;;0.00;99.90;;;;;;4976035;28;20198;-73
2023/01/17 10:05:46;;;;;;;5.55;4.93;;;0.00;99.90;;;;;;4978267;28;20207;-73
2023/01/17 10:08:24;;;;;;;7.90;5.60;;;0.00;99.90;;;;;;4978339;28;20195;-73
2023/01/17 10:11:15;;;;;;;5.43;4.88;;;0.10;99.90;;;;;;4978095;28;20246;-72
2023/01/17 10:13:52;;;;;;;7.57;5.22;;;0.10;99.90;;;;;;4977922;28;20584;-72
2023/01/17 10:16:31;;;;;;;9.55;5.72;;;0.30;99.90;;;;;;4977828;28;20717;-72
2023/01/17 10:19:12;;;;;;;7.97;5.72;;;0.20;99.90;;;;;;4978064;28;20238;-72
2023/01/17 10:21:57;;;;;;;9.43;6.13;;;0.00;99.90;;;;;;4977934;28;20194;-72
2023/01/17 10:25:12;;;;;;;11.55;6.93;;;0.10;99.90;;;;;;4978262;28;20633;-73
2023/01/17 10:27:43;;;;;;;11.10;5.40;;;0.10;99.90;;;;;;4958807;28;20209;-73
2023/01/17 10:30:17;;;;;;;6.63;5.97;;;0.10;99.90;;;;;;4978036;28;20250;-73
2023/01/17 10:32:48;;;;;;;6.32;5.68;;;0.10;99.90;;;;;;4977927;28;20195;-73
2023/01/17 10:35:22;;;;;;;10.20;6.95;;;0.10;99.90;;;;;;4977797;28;20192;-73
2023/01/17 10:37:49;;;;;;;10.35;6.78;;;0.00;99.90;;;;;;4977789;28;20212;-73
2023/01/17 10:40:21;;;;;;;9.60;5.88;;;0.00;99.90;;;;;;4979141;28;20203;-73
2023/01/17 10:42:53;;;;;;;7.97;5.28;;;0.10;99.90;;;;;;4977819;28;20192;-73
2023/01/17 10:45:27;;;;;;;7.05;5.28;;;0.10;99.90;;;;;;4977834;28;20598;-74
2023/01/17 10:48:04;;;;;;;4.75;4.32;;;0.20;99.90;;;;;;4978437;28;20214;-73
2023/01/17 10:50:41;;;;;;;7.47;4.68;;;0.20;99.90;;;;;;4979248;28;20549;-73
2023/01/17 10:53:21;;;;;;;10.98;5.93;;;0.20;99.90;;;;;;4978841;28;20658;-73
2023/01/17 10:55:53;;;;;;;5.22;4.30;;;0.20;99.90;;;;;;4977773;28;20757;-74
2023/01/17 10:58:19;;;;;;;6.05;4.25;;;0.30;99.90;;;;;;4979704;28;20219;-74
2023/01/17 11:00:49;;;;;;;4.95;4.07;;;0.30;99.90;;;;;;4980480;28;20690;-73
2023/01/17 11:03:19;;;;;;;3.63;3.42;;;0.30;99.90;;;;;;4979318;28;20667;-74
2023/01/17 11:06:21;;;;;;;4.38;3.97;;;0.40;99.90;;;;;;4980386;28;20223;-74
2023/01/17 11:08:53;;;;;;;4.07;3.72;;;0.50;99.90;;;;;;4980400;28;20238;-74
2023/01/17 11:11:21;;;;;;;5.60;4.20;;;0.60;99.90;;;;;;4977435;28;20210;-74
2023/01/17 11:13:49;;;;;;;6.57;4.90;;;0.50;99.90;;;;;;4976787;28;20203;-74
2023/01/17 11:16:20;;;;;;;9.27;5.82;;;0.60;99.90;;;;;;4977009;28;20234;-74
2023/01/17 11:19:03;;;;;;;6.72;5.32;;;0.60;99.90;;;;;;4977341;28;20222;-74
2023/01/17 11:21:32;;;;;;;4.72;3.35;;;0.70;99.90;;;;;;4977310;28;20270;-74
2023/01/17 11:24:11;;;;;;;5.05;4.65;;;0.70;99.90;;;;;;4976745;28;20667;-74
2023/01/17 11:26:46;;;;;;;4.07;3.67;;;0.70;99.90;;;;;;4977110;28;20293;-73
2023/01/17 11:29:25;;;;;;;5.65;3.97;;;0.80;99.90;;;;;;4976964;28;20195;-73
2023/01/17 11:31:52;;;;;;;3.70;3.28;;;0.90;99.90;;;;;;4976754;28;20187;-73
2023/01/17 11:34:23;;;;;;;6.38;2.80;;;0.90;99.90;;;;;;4976697;28;20218;-73
2023/01/17 11:37:08;;;;;;;3.53;3.22;;;0.90;99.90;;;;;;4976910;28;20243;-73
2023/01/17 11:39:35;;;;;;;3.20;3.00;;;0.90;99.90;;;;;;4976872;28;20198;-73
2023/01/17 11:42:06;;;;;;;4.22;3.83;;;0.90;99.90;;;;;;4976800;28;20230;-73
2023/01/17 11:44:34;;;;;;;5.45;3.80;;;1.10;99.90;;;;;;4976501;28;20192;-73
2023/01/17 11:47:15;;;;;;;4.55;4.00;;;1.10;99.90;;;;;;4976087;28;20707;-73
2023/01/17 11:49:44;;;;;;;4.22;3.50;;;1.30;99.90;;;;;;4976350;28;20384;-73
2023/01/17 11:52:21;;;;;;;8.60;5.15;;;1.30;99.90;;;;;;4976942;28;20215;-73
2023/01/17 11:54:48;;;;;;;4.53;3.47;;;1.40;99.90;;;;;;4976554;28;20566;-73
2023/01/17 11:57:22;;;;;;;5.38;3.75;;;1.40;99.90;;;;;;4976504;28;20234;-73
2023/01/17 11:59:51;;;;;;;9.35;6.05;;;1.40;99.90;;;;;;4977209;28;20198;-73
2023/01/17 12:02:42;;;;;;;6.25;4.78;;;1.50;99.90;;;;;;4976331;28;20200;-73
2023/01/17 12:05:27;;;;;;;7.63;4.80;;;1.50;99.90;;;;;;4976403;28;20191;-74
2023/01/17 12:08:07;;;;;;;6.15;3.50;;;1.40;99.90;;;;;;4976383;28;20183;-74
2023/01/17 12:10:42;;;;;;;9.02;3.75;;;1.40;99.90;;;;;;4976365;28;20195;-74
2023/01/17 12:16:29;;;;;;;2.90;2.70;;;1.40;99.90;;;;;;4976060;28;20319;-73
2023/01/17 12:19:11;;;;;;;3.00;2.05;;;1.50;99.90;;;;;;4976152;28;20215;-74
2023/01/17 12:21:48;;;;;;;5.30;2.90;;;1.50;99.90;;;;;;4976012;28;20246;-74
2023/01/17 12:24:47;;;;;;;2.08;1.98;;;1.60;99.90;;;;;;4976203;28;20191;-74
2023/01/17 12:27:21;;;;;;;3.78;1.80;;;1.60;99.90;;;;;;4975876;28;20235;-74
2023/01/17 12:29:58;;;;;;;2.40;1.60;;;1.60;99.90;;;;;;4975918;28;20191;-74
2023/01/17 12:32:48;;;;;;;2.00;1.90;;;1.60;99.90;;;;;;4975573;28;20611;-75
2023/01/17 12:35:19;;;;;;;2.78;1.63;;;1.50;99.90;;;;;;4975780;28;20187;-73
2023/01/17 12:37:49;;;;;;;1.88;1.30;;;1.40;99.90;;;;;;4975850;28;20266;-74
2023/01/17 12:40:25;;;;;;;1.67;1.63;;;1.40;99.90;;;;;;4975843;28;20211;-74
2023/01/17 12:42:58;;;;;;;2.47;2.28;;;1.50;99.90;;;;;;4975812;28;20705;-74
2023/01/17 12:45:31;;;;;;;1.50;1.40;;;1.50;99.90;;;;;;4975583;28;20210;-74
2023/01/17 12:48:02;;;;;;;1.88;1.75;;;1.40;99.90;;;;;;4975872;28;20187;-74
2023/01/17 12:50:35;;;;;;;2.88;1.83;;;1.30;99.90;;;;;;4975577;28;20198;-74
2023/01/17 12:53:09;;;;;;;1.60;1.50;;;1.30;99.90;;;;;;4975539;28;20690;-74
2023/01/17 12:55:46;;;;;;;1.63;1.55;;;1.30;99.90;;;;;;4975409;28;20278;-74
2023/01/17 12:58:19;;;;;;;5.00;1.10;;;1.20;99.90;;;;;;4975323;28;20215;-74
2023/01/17 13:00:50;;;;;;;2.53;1.40;;;1.10;99.90;;;;;;4975399;28;20191;-74
2023/01/17 13:03:26;;;;;;;1.13;1.13;;;1.10;99.90;;;;;;4975819;28;20235;-74
2023/01/17 13:05:52;;;;;;;1.88;1.50;;;1.10;99.90;;;;;;4975143;28;20817;-74
2023/01/17 13:08:25;;;;;;;3.97;1.65;;;1.10;99.90;;;;;;4975090;28;20211;-74
2023/01/17 13:11:00;;;;;;;1.35;1.15;;;1.10;99.90;;;;;;4975309;28;20184;-74
2023/01/17 13:13:28;;;;;;;1.63;1.42;;;1.10;99.90;;;;;;4975265;28;20187;-74
2023/01/17 13:15:58;;;;;;;1.50;1.40;;;1.10;99.90;;;;;;4975237;28;20223;-74
2023/01/17 13:18:28;;;;;;;1.60;1.50;;;1.00;99.90;;;;;;4975075;28;20222;-74
2023/01/17 13:21:10;;;;;;;2.22;1.52;;;1.00;99.90;;;;;;4975244;28;20192;-74
2023/01/17 13:23:49;;;;;;;1.65;1.55;;;1.00;99.90;;;;;;4975339;28;20571;-74
2023/01/17 13:26:29;;;;;;;2.03;1.92;;;1.00;99.90;;;;;;4974734;28;20227;-74
2023/01/17 13:29:04;;;;;;;2.78;1.90;;;1.10;99.90;;;;;;4975004;28;20187;-74
2023/01/17 13:31:47;;;;;;;1.80;1.50;;;1.00;99.90;;;;;;4974991;28;20187;-74
2023/01/17 13:34:52;;;;;;;1.88;1.50;;;1.00;99.90;;;;;;4974969;28;20192;-74
2023/01/17 13:37:43;;;;;;;1.63;1.60;;;1.00;99.90;;;;;;4976246;28;20301;-74
2023/01/17 13:40:31;;;;;;;1.70;1.60;;;0.80;99.90;;;;;;4978562;28;20670;-74
2023/01/17 13:43:01;;;;;;;1.30;1.30;;;0.90;99.90;;;;;;4979042;28;20192;-74
2023/01/17 13:45:30;;;;;;;1.80;1.70;;;0.80;99.90;;;;;;4979595;28;20203;-74
2023/01/17 13:48:30;;;;;;;1.67;1.58;;;0.70;99.90;;;;;;4978572;28;20203;-72
2023/01/17 13:50:58;;;;;;;4.30;3.35;;;0.70;99.90;;;;;;4978501;28;20218;-74
2023/01/17 13:53:56;;;;;;;5.68;3.10;;;0.60;99.90;;;;;;4978756;28;20207;-73
2023/01/17 13:56:36;;;;;;;1.35;1.35;;;0.70;99.90;;;;;;4978258;28;20702;-73
2023/01/17 13:59:25;;;;;;;1.75;1.65;;;0.60;99.90;;;;;;4978487;28;20275;-76
2023/01/17 14:01:52;;;;;;;4.82;1.90;;;0.60;99.90;;;;;;4978477;28;20192;-76
2023/01/17 14:04:20;;;;;;;2.90;1.92;;;0.60;99.90;;;;;;4978408;28;20298;-76
2023/01/17 14:06:49;;;;;;;3.03;2.90;;;0.60;99.90;;;;;;4977910;28;20733;-76
2023/01/17 14:09:23;;;;;;;3.63;3.33;;;0.70;99.90;;;;;;4978340;28;20210;-76
2023/01/17 14:12:03;;;;;;;2.67;2.45;;;0.70;99.90;;;;;;4978393;28;20187;-76
2023/01/17 14:14:56;;;;;;;2.38;2.17;;;0.70;99.90;;;;;;4978226;28;20187;-76
2023/01/17 14:17:50;;;;;;;3.08;2.78;;;0.80;99.90;;;;;;4974994;28;20343;-77
2023/01/17 14:20:53;;;;;;;3.70;2.25;;;0.70;99.90;;;;;;4978288;28;20198;-76
2023/01/17 14:23:29;;;;;;;2.00;1.90;;;0.70;99.90;;;;;;4977902;28;20246;-76
2023/01/17 14:26:00;;;;;;;4.65;1.80;;;0.70;99.90;;;;;;4977505;28;20638;-76
2023/01/17 14:28:30;;;;;;;1.70;1.60;;;0.70;99.90;;;;;;4977648;28;20639;-76
2023/01/17 14:31:02;;;;;;;2.40;2.20;;;0.60;99.90;;;;;;4977881;28;20183;-76
2023/01/17 14:33:30;;;;;;;2.45;2.15;;;0.60;99.90;;;;;;4977784;28;20258;-76
2023/01/17 14:36:00;;;;;;;6.00;2.60;;;0.70;99.90;;;;;;4977642;28;20251;-76
2023/01/17 14:38:28;;;;;;;4.15;3.22;;;0.70;99.90;;;;;;4977333;28;20210;-76
2023/01/17 14:40:58;;;;;;;2.15;1.45;;;0.60;99.90;;;;;;4977651;28;20207;-76
2023/01/17 14:43:27;;;;;;;2.60;2.17;;;0.60;99.90;;;;;;4977693;28;20210;-76
2023/01/17 14:46:01;;;;;;;2.80;2.60;;;0.60;99.90;;;;;;4977581;28;20257;-76
2023/01/17 14:48:28;;;;;;;3.05;2.78;;;0.60;99.90;;;;;;4976380;28;20207;-76
2023/01/17 14:50:59;;;;;;;5.60;4.15;;;0.50;99.90;;;;;;4977473;28;20207;-76
2023/01/17 14:53:27;;;;;;;2.75;2.28;;;0.60;99.90;;;;;;4977445;28;20198;-76
2023/01/17 14:55:57;;;;;;;1.85;1.75;;;0.60;99.90;;;;;;4977388;28;20219;-74
2023/01/17 14:58:26;;;;;;;2.97;2.78;;;0.60;99.90;;;;;;4977681;28;20219;-76
2023/01/17 15:00:57;;;;;;;2.50;2.30;;;0.50;99.90;;;;;;4977270;28;20203;-76
2023/01/17 15:03:26;;;;;;;2.05;1.90;;;0.50;99.90;;;;;;4977410;28;20194;-77
2023/01/17 15:05:54;;;;;;;2.13;1.98;;;0.50;99.90;;;;;;4977335;28;20227;-76
2023/01/17 15:08:24;;;;;;;3.78;2.22;;;0.40;99.90;;;;;;4977196;28;20682;-77
2023/01/17 15:10:55;;;;;;;2.47;1.90;;;0.40;99.90;;;;;;4978586;28;20199;-76
2023/01/17 15:13:28;;;;;;;2.30;2.20;;;0.30;99.90;;;;;;4981367;28;20191;-76
2023/01/17 15:16:03;;;;;;;2.15;2.05;;;0.20;99.90;;;;;;4981362;28;20228;-76
2023/01/17 15:18:37;;;;;;;2.25;2.10;;;0.10;99.90;;;;;;4981155;28;20203;-76
2023/01/17 15:21:07;;;;;;;3.70;2.00;;;0.10;99.90;;;;;;4982723;28;20196;-76
2023/01/17 15:23:38;;;;;;;2.42;2.22;;;0.00;99.90;;;;;;4980990;28;20214;-76
2023/01/17 15:26:07;;;;;;;3.30;2.58;;;-0.10;99.90;;;;;;4979766;28;20228;-73
2023/01/17 15:28:35;;;;;;;3.80;2.30;;;-0.10;99.90;;;;;;4978490;28;20214;-74
2023/01/17 15:31:12;;;;;;;2.53;2.42;;;-0.10;99.90;;;;;;4978026;28;20203;-74
2023/01/17 15:33:43;;;;;;;3.33;3.03;;;-0.10;99.90;;;;;;4978742;28;20192;-73
2023/01/17 15:36:23;;;;;;;3.60;3.30;;;-0.10;99.90;;;;;;4978503;28;20230;-73
2023/01/17 15:38:56;;;;;;;5.05;3.65;;;-0.10;99.90;;;;;;4977465;28;20288;-73
2023/01/17 15:41:26;;;;;;;3.97;3.25;;;-0.10;99.90;;;;;;4976923;28;20211;-73
2023/01/17 15:43:56;;;;;;;4.10;3.30;;;-0.10;99.90;;;;;;4976928;28;20199;-73
2023/01/17 15:46:28;;;;;;;3.90;3.15;;;-0.10;99.90;;;;;;4977013;28;20223;-73
2023/01/17 15:49:06;;;;;;;3.25;3.05;;;-0.20;99.90;;;;;;4976848;28;20678;-73
2023/01/17 15:51:36;;;;;;;5.13;3.80;;;-0.10;99.90;;;;;;4976367;28;20551;-72
2023/01/17 15:54:24;;;;;;;6.32;4.07;;;-0.20;99.90;;;;;;4976489;28;20203;-72
2023/01/17 15:57:02;;;;;;;5.63;4.07;;;-0.10;99.90;;;;;;4976052;28;20576;-72
2023/01/17 15:59:40;;;;;;;3.40;3.10;;;-0.20;99.90;;;;;;4976393;28;20207;-73
2023/01/17 16:02:34;;;;;;;5.97;4.03;;;-0.20;99.90;;;;;;4976534;28;20191;-74
2023/01/17 16:05:23;;;;;;;7.00;4.80;;;-0.20;99.90;;;;;;4976216;28;20203;-75
2023/01/17 16:07:50;;;;;;;7.78;4.13;;;-0.20;99.90;;;;;;4976036;28;20206;-75
2023/01/17 16:10:19;;;;;;;9.48;5.97;;;-0.20;99.90;;;;;;4976190;28;20191;-75
2023/01/17 16:12:47;;;;;;;5.35;4.80;;;-0.20;99.90;;;;;;4976314;28;20242;-76
2023/01/17 16:15:14;;;;;;;6.50;4.50;;;-0.20;99.90;;;;;;4979821;28;20203;-75
2023/01/17 16:17:45;;;;;;;6.03;4.93;;;-0.20;99.90;;;;;;4979378;28;20315;-76
2023/01/17 16:20:19;;;;;;;8.80;5.47;;;-0.30;99.90;;;;;;4975705;28;20674;-75
2023/01/17 16:22:46;;;;;;;6.40;5.38;;;-0.30;99.90;;;;;;4975705;28;20603;-76
2023/01/17 16:25:15;;;;;;;3.53;3.28;;;-0.30;99.90;;;;;;4976008;28;20206;-76
2023/01/17 16:27:42;;;;;;;3.35;3.15;;;-0.30;99.90;;;;;;4975692;28;20203;-75
2023/01/17 16:30:10;;;;;;;8.27;4.47;;;-0.40;99.90;;;;;;4975718;28;20239;-75
2023/01/17 16:32:36;;;;;;;5.95;4.88;;;-0.40;99.90;;;;;;4975768;28;20204;-75
2023/01/17 16:35:03;;;;;;;5.20;3.50;;;-0.40;99.90;;;;;;4975659;28;20210;-75
2023/01/17 16:37:31;;;;;;;7.25;4.75;;;-0.40;99.90;;;;;;4976090;28;20590;-75
2023/01/17 16:39:58;;;;;;;11.35;6.70;;;-0.40;99.90;;;;;;4975738;28;20207;-74
2023/01/17 16:42:25;;;;;;;13.27;6.57;;;-0.40;99.90;;;;;;4975742;28;20228;-75
2023/01/17 16:44:52;;;;;;;10.40;8.20;;;-0.40;99.90;;;;;;4975840;28;20211;-77
2023/01/17 16:47:19;;;;;;;13.27;8.02;;;-0.40;99.90;;;;;;4976189;28;20230;-76
2023/01/17 16:49:46;;;;;;;7.03;4.07;;;-0.40;99.90;;;;;;4977293;28;20245;-76
2023/01/17 16:52:13;;;;;;;4.20;3.80;;;-0.40;99.90;;;;;;4976958;28;20258;-76
2023/01/17 16:54:41;;;;;;;4.85;4.45;;;-0.40;99.90;;;;;;4976369;28;20206;-76
2023/01/17 16:57:07;;;;;;;4.93;4.32;;;-0.40;99.90;;;;;;4976385;28;20251;-76
2023/01/17 16:59:34;;;;;;;7.28;5.95;;;-0.40;99.90;;;;;;4975954;28;20215;-76
2023/01/17 17:02:03;;;;;;;7.28;6.03;;;-0.40;99.90;;;;;;4976282;28;20207;-76
2023/01/17 17:04:30;;;;;;;5.00;4.60;;;-0.30;99.90;;;;;;4976047;28;20207;-75
2023/01/17 17:06:57;;;;;;;5.40;4.90;;;-0.40;99.90;;;;;;4976021;28;20774;-76
2023/01/17 17:09:23;;;;;;;6.20;4.78;;;-0.40;99.90;;;;;;4976349;28;20607;-74
2023/01/17 17:11:51;;;;;;;4.55;4.15;;;-0.40;99.90;;;;;;4974747;28;20210;-74
2023/01/17 17:14:18;;;;;;;3.90;3.60;;;-0.40;99.90;;;;;;4975098;28;20211;-75
2023/01/17 17:16:46;;;;;;;3.90;3.53;;;-0.30;99.90;;;;;;4975140;28;20231;-75
2023/01/17 17:19:13;;;;;;;5.38;3.35;;;-0.40;99.90;;;;;;4974889;28;20234;-75
2023/01/17 17:21:39;;;;;;;3.83;3.63;;;-0.40;99.90;;;;;;4975324;28;20210;-75
2023/01/17 17:24:06;;;;;;;3.97;3.70;;;-0.40;99.90;;;;;;4975017;28;20283;-75
2023/01/17 17:26:35;;;;;;;7.07;4.30;;;-0.40;99.90;;;;;;4974534;28;20745;-75
2023/01/17 17:29:05;;;;;;;4.70;4.25;;;-0.40;99.90;;;;;;4974948;28;20219;-74
2023/01/17 17:31:32;;;;;;;4.80;4.45;;;-0.40;99.90;;;;;;4974826;28;20203;-74
2023/01/17 17:33:59;;;;;;;4.25;3.85;;;-0.40;99.90;;;;;;4974591;28;20207;-74
2023/01/17 17:36:26;;;;;;;3.95;3.45;;;-0.40;99.90;;;;;;4974856;28;20223;-75
2023/01/17 17:38:54;;;;;;;3.75;3.55;;;-0.40;99.90;;;;;;4974664;28;20223;-74
2023/01/17 17:41:22;;;;;;;7.88;3.90;;;-0.40;99.90;;;;;;4974904;28;20211;-74
2023/01/17 17:43:50;;;;;;;4.80;4.00;;;-0.40;99.90;;;;;;4974675;28;20210;-75
2023/01/17 17:46:19;;;;;;;7.95;5.65;;;-0.40;99.90;;;;;;4974868;28;20219;-74
2023/01/17 17:48:46;;;;;;;6.05;4.57;;;-0.40;99.90;;;;;;4974459;28;20211;-74
2023/01/17 17:51:25;;;;;;;6.07;4.75;;;-0.40;99.90;;;;;;4974544;28;20270;-74
2023/01/17 17:53:53;;;;;;;9.63;6.32;;;-0.40;99.90;;;;;;4974693;28;20562;-75
2023/01/17 17:56:20;;;;;;;8.35;7.07;;;-0.40;99.90;;;;;;4974802;28;20657;-75
2023/01/17 17:58:48;;;;;;;6.22;5.50;;;-0.30;99.90;;;;;;4974804;28;20219;-75
2023/01/17 18:01:14;;;;;;;5.88;5.20;;;-0.30;99.90;;;;;;4974988;28;20211;-75
2023/01/17 18:03:43;;;;;;;8.00;5.22;;;-0.30;99.90;;;;;;4974436;28;20737;-75
2023/01/17 18:06:11;;;;;;;7.00;6.30;;;-0.30;99.90;;;;;;4974659;28;20250;-75
2023/01/17 18:08:39;;;;;;;6.25;5.65;;;-0.30;99.90;;;;;;4974331;28;20690;-75
2023/01/17 18:11:10;;;;;;;5.57;5.18;;;-0.30;99.90;;;;;;4974297;28;20675;-75
2023/01/17 18:13:37;;;;;;;6.68;5.75;;;-0.30;99.90;;;;;;4974750;28;20298;-76
2023/01/17 18:16:07;;;;;;;5.07;4.70;;;-0.30;99.90;;;;;;4974426;28;20719;-74
2023/01/17 18:18:35;;;;;;;8.10;5.45;;;-0.30;99.90;;;;;;4974317;28;20694;-74
2023/01/17 18:21:07;;;;;;;8.75;4.80;;;-0.30;99.90;;;;;;4974497;28;20698;-75
2023/01/17 18:23:34;;;;;;;5.47;4.97;;;-0.30;99.90;;;;;;4976395;28;20207;-75
2023/01/17 18:26:01;;;;;;;4.95;4.55;;;-0.30;99.90;;;;;;4977922;28;20270;-75
2023/01/17 18:28:27;;;;;;;5.25;4.82;;;-0.30;99.90;;;;;;4977750;28;20702;-75
2023/01/17 18:30:54;;;;;;;6.40;5.72;;;-0.30;99.90;;;;;;4977905;28;20230;-76
2023/01/17 18:33:21;;;;;;;5.20;4.47;;;-0.30;99.90;;;;;;4977732;28;20745;-76
2023/01/17 18:35:53;;;;;;;4.43;4.03;;;-0.30;99.90;;;;;;4978021;28;20231;-75
2023/01/17 18:38:22;;;;;;;5.00;4.57;;;-0.30;99.90;;;;;;4977958;28;20208;-76
2023/01/17 18:40:48;;;;;;;7.38;6.30;;;-0.30;99.90;;;;;;4977940;28;20207;-75
2023/01/17 18:43:15;;;;;;;8.45;6.43;;;-0.30;99.90;;;;;;4977906;28;20210;-76
2023/01/17 18:45:42;;;;;;;6.45;5.85;;;-0.30;99.90;;;;;;4977710;28;20223;-76
2023/01/17 18:48:08;;;;;;;6.35;5.32;;;-0.30;99.90;;;;;;4977575;28;20211;-76
2023/01/17 18:50:35;;;;;;;5.95;5.45;;;-0.30;99.90;;;;;;4977591;28;20192;-76
2023/01/17 18:53:02;;;;;;;6.95;5.65;;;-0.20;99.90;;;;;;4977875;28;20204;-76
2023/01/17 18:55:30;;;;;;;4.38;3.90;;;-0.20;99.90;;;;;;4977098;28;20671;-75
2023/01/17 18:57:56;;;;;;;4.05;3.75;;;-0.20;99.90;;;;;;4977597;28;20610;-76
2023/01/17 19:00:23;;;;;;;4.65;4.07;;;-0.20;99.90;;;;;;4977507;28;20626;-75
2023/01/17 19:02:50;;;;;;;5.10;4.78;;;-0.10;99.90;;;;;;4977527;28;20250;-76
2023/01/17 19:05:20;;;;;;;4.10;3.80;;;-0.10;99.90;;;;;;4977049;28;20669;-75
2023/01/17 19:07:47;;;;;;;4.63;4.22;;;-0.20;99.90;;;;;;4977451;28;20199;-75
2023/01/17 19:10:13;;;;;;;4.18;3.78;;;-0.10;99.90;;;;;;4977378;28;20199;-75
2023/01/17 19:12:41;;;;;;;4.63;4.22;;;-0.10;99.90;;;;;;4977311;28;20214;-75
2023/01/17 19:15:09;;;;;;;3.90;3.70;;;-0.10;99.90;;;;;;4976863;28;20671;-76
2023/01/17 19:17:36;;;;;;;4.30;4.00;;;-0.10;99.90;;;;;;4977053;28;20229;-75
2023/01/17 19:20:02;;;;;;;4.20;3.88;;;-0.20;99.90;;;;;;4977300;28;20230;-76
2023/01/17 19:22:29;;;;;;;4.90;4.50;;;-0.20;99.90;;;;;;4977362;28;20210;-75
2023/01/17 19:24:56;;;;;;;3.80;3.60;;;-0.20;99.90;;;;;;4977249;28;20242;-75
2023/01/17 19:27:22;;;;;;;4.30;4.00;;;-0.20;99.90;;;;;;4976817;28;20219;-76
2023/01/17 19:29:50;;;;;;;4.30;4.00;;;-0.20;99.90;;;;;;4976840;28;20203;-75
2023/01/17 19:32:18;;;;;;;5.18;4.78;;;-0.30;99.90;;;;;;4976737;28;20667;-75
2023/01/17 19:34:44;;;;;;;5.32;4.82;;;-0.50;99.90;;;;;;4976213;28;20622;-75
2023/01/17 19:37:11;;;;;;;8.50;7.07;;;-0.50;99.90;;;;;;4976482;28;20626;-75
2023/01/17 19:39:38;;;;;;;5.53;5.03;;;-0.60;99.90;;;;;;4976458;28;20277;-76
2023/01/17 19:42:08;;;;;;;4.97;4.53;;;-0.70;99.90;;;;;;4976608;28;20199;-75
2023/01/17 19:44:34;;;;;;;5.10;4.70;;;-0.80;99.90;;;;;;4976474;28;20204;-76
2023/01/17 19:47:02;;;;;;;7.55;6.72;;;-0.90;99.90;;;;;;4976432;28;20278;-76
2023/01/17 19:49:30;;;;;;;7.53;6.43;;;-1.00;99.90;;;;;;4976011;28;20210;-75
2023/01/17 19:51:57;;;;;;;8.60;6.65;;;-1.10;99.90;;;;;;4976522;28;20234;-75
2023/01/17 19:54:24;;;;;;;7.55;6.70;;;-1.20;99.90;;;;;;4976475;28;20208;-75
2023/01/17 19:56:51;;;;;;;10.38;6.80;;;-1.30;99.90;;;;;;4975964;28;20591;-75
2023/01/17 19:59:18;;;;;;;8.43;7.50;;;-1.40;99.90;;;;;;4976303;28;20266;-75
2023/01/17 20:01:45;;;;;;;11.23;9.48;;;-1.50;99.90;;;;;;4976396;28;20303;-75
2023/01/17 20:04:13;;;;;;;15.93;10.38;;;-1.50;99.90;;;;;;4976412;28;20199;-75
2023/01/17 20:06:40;;;;;;;8.50;7.00;;;-1.60;99.90;;;;;;4976063;28;20769;-74
2023/01/17 20:09:07;;;;;;;8.82;6.70;;;-1.50;99.90;;;;;;4976209;28;20199;-75
2023/01/17 20:11:34;;;;;;;7.90;7.10;;;-1.40;99.90;;;;;;4976226;28;20202;-74
2023/01/17 20:14:01;;;;;;;8.75;7.32;;;-1.40;99.90;;;;;;4976136;28;20210;-72
2023/01/17 20:16:30;;;;;;;7.07;6.38;;;-1.30;99.90;;;;;;4976304;28;20227;-72
2023/01/17 20:18:57;;;;;;;9.07;7.03;;;-1.30;99.90;;;;;;4975922;28;20215;-73
2023/01/17 20:21:27;;;;;;;11.70;8.68;;;-1.20;99.90;;;;;;4976264;28;20208;-73
2023/01/17 20:23:55;;;;;;;8.40;7.22;;;-1.20;99.90;;;;;;4975820;28;20207;-73
2023/01/17 20:26:24;;;;;;;10.90;8.32;;;-1.20;99.90;;;;;;4975740;28;20223;-73
2023/01/17 20:28:52;;;;;;;9.65;8.63;;;-1.30;99.90;;;;;;4975910;28;20211;-73
2023/01/17 20:31:20;;;;;;;9.98;8.93;;;-1.40;99.90;;;;;;4975798;28;20199;-73
2023/01/17 20:33:49;;;;;;;11.85;9.27;;;-1.50;99.90;;;;;;4975566;28;20199;-73
2023/01/17 20:36:17;;;;;;;9.48;8.38;;;-1.60;99.90;;;;;;4975644;28;20250;-73
2023/01/17 20:38:47;;;;;;;9.25;8.27;;;-1.70;99.90;;;;;;4975112;28;20594;-73
2023/01/17 20:41:16;;;;;;;8.00;7.25;;;-1.80;99.90;;;;;;4976005;28;20199;-73
2023/01/17 20:43:44;;;;;;;7.93;6.90;;;-1.90;99.90;;;;;;4975386;28;20207;-73
2023/01/17 20:46:12;;;;;;;7.65;6.85;;;-1.90;99.90;;;;;;4974507;28;20772;-73
2023/01/17 20:48:44;;;;;;;9.20;7.97;;;-1.90;99.90;;;;;;4974676;28;20215;-73
2023/01/17 20:51:11;;;;;;;8.52;6.88;;;-1.90;99.90;;;;;;4975520;28;20242;-73
2023/01/17 20:53:40;;;;;;;8.60;7.57;;;-1.90;99.90;;;;;;4976181;28;20262;-73
2023/01/17 20:56:10;;;;;;;8.45;7.13;;;-1.90;99.90;;;;;;4975273;28;20314;-73
2023/01/17 20:58:38;;;;;;;14.95;9.07;;;-1.90;99.90;;;;;;4975243;28;20188;-72
2023/01/17 21:01:05;;;;;;;21.90;11.40;;;-1.80;99.90;;;;;;4975360;28;20227;-72
2023/01/17 21:03:34;;;;;;;11.40;8.13;;;-1.70;99.90;;;;;;4975344;28;20203;-72
2023/01/17 21:06:01;;;;;;;14.63;8.80;;;-1.60;99.90;;;;;;4975216;28;20227;-72
2023/01/17 21:08:28;;;;;;;19.42;10.52;;;-1.50;99.90;;;;;;4975401;28;20199;-72
2023/01/17 21:10:55;;;;;;;40.90;17.33;;;-1.40;99.90;;;;;;4975073;28;20675;-72
2023/01/17 21:13:24;;;;;;;60.20;23.63;;;-1.40;99.90;;;;;;4975318;28;20203;-72
2023/01/17 21:15:51;;;;;;;68.22;24.55;;;-1.30;99.90;;;;;;4975562;28;20263;-72
2023/01/17 21:18:19;;;;;;;32.42;13.55;;;-1.30;99.90;;;;;;4975279;28;20203;-73
2023/01/17 21:20:46;;;;;;;18.27;9.75;;;-1.20;99.90;;;;;;4974641;28;20608;-72
2023/01/17 21:23:16;;;;;;;16.25;9.80;;;-1.10;99.90;;;;;;4974856;28;20611;-73
2023/01/17 21:25:43;;;;;;;9.68;8.68;;;-1.00;99.90;;;;;;4975044;28;20219;-73
2023/01/17 21:28:10;;;;;;;10.10;8.38;;;-1.00;99.90;;;;;;4975057;28;20208;-73
2023/01/17 21:30:38;;;;;;;9.55;7.63;;;-0.90;99.90;;;;;;4975132;28;20203;-73
2023/01/17 21:33:05;;;;;;;15.23;9.10;;;-0.80;99.90;;;;;;4975243;28;20199;-72
2023/01/17 21:35:31;;;;;;;11.50;9.27;;;-0.80;99.90;;;;;;4974919;28;20232;-72
2023/01/17 21:37:58;;;;;;;14.23;9.48;;;-0.80;99.90;;;;;;4974776;28;20199;-72
2023/01/17 21:40:25;;;;;;;21.50;12.73;;;-0.70;99.90;;;;;;4974704;28;20215;-72
2023/01/17 21:42:51;;;;;;;14.00;10.63;;;-0.70;99.90;;;;;;4974759;28;20236;-74
2023/01/17 21:45:18;;;;;;;15.63;11.57;;;-0.70;99.90;;;;;;4974717;28;20595;-73